Time;durP1;ratioP1;P1;durP2;ratioP2;P2;SDS_P1;SDS_P2;PMS_P1;PMS_P2;Temp;Humidity;BMP_temperature;BMP_pressure;BME280_temperature;BME280_humidity;BME280_pressure;Samples;Min_cycle;Max_cycle;Signal;HPM_P1;HPM_P2
2022/01/16 00:05:23;;;;;;;;;70.67;53.00;;;;;5.41;47.77;99711.09;6104237;28;97494;-67
2022/01/16 00:08:26;;;;;;;;;69.00;53.00;;;;;5.38;48.13;99709.56;6088238;28;97302;-65
2022/01/16 00:11:32;;;;;;;;;70.40;54.60;;;;;5.26;48.68;99712.78;6089444;28;96794;-68
2022/01/16 00:14:35;;;;;;;;;72.00;57.00;;;;;5.23;48.41;99709.41;6088036;28;97446;-66
2022/01/16 00:17:52;;;;;;;;;75.20;59.20;;;;;5.21;48.97;99710.59;6089722;28;97380;-66
2022/01/16 00:20:55;;;;;;;;;74.20;57.00;;;;;5.27;48.99;99701.06;6090117;28;96973;-70
2022/01/16 00:23:59;;;;;;;;;76.40;62.00;;;;;5.22;49.32;99678.34;6069486;28;96748;-70
2022/01/16 00:27:05;;;;;;;;;77.00;63.00;;;;;5.28;49.33;99684.84;6065285;28;97109;-66
2022/01/16 00:30:09;;;;;;;;;75.00;60.40;;;;;5.29;49.41;99688.34;6084116;28;97411;-67
2022/01/16 00:33:13;;;;;;;;;75.00;58.60;;;;;5.28;49.09;99695.53;6087477;28;98525;-68
2022/01/16 00:36:19;;;;;;;;;74.50;60.75;;;;;5.31;49.11;99702.41;6103514;28;97485;-66
2022/01/16 00:39:22;;;;;;;;;71.60;55.60;;;;;5.34;49.27;99678.00;6088721;28;96980;-70
2022/01/16 00:42:27;;;;;;;;;72.60;57.00;;;;;5.34;49.28;99645.91;6086322;28;99142;-70
2022/01/16 00:45:34;;;;;;;;;70.40;57.00;;;;;5.35;49.34;99679.66;6088926;28;97630;-71
2022/01/16 00:48:37;;;;;;;;;74.50;56.50;;;;;5.33;48.90;99687.00;6080642;28;97493;-67
2022/01/16 00:51:40;;;;;;;;;73.00;58.00;;;;;5.36;49.28;99700.91;6065482;28;96842;-69
2022/01/16 00:54:44;;;;;;;;;70.60;55.00;;;;;5.38;49.04;99716.75;6069046;28;96679;-66
2022/01/16 00:57:49;;;;;;;;;72.50;58.50;;;;;5.22;48.94;99670.34;6064503;28;97167;-66
2022/01/16 01:00:52;;;;;;;;;74.00;58.00;;;;;5.40;48.96;99677.31;6079860;28;96931;-68
2022/01/16 01:03:57;;;;;;;;;74.50;59.00;;;;;5.41;49.00;99684.34;6065583;28;97455;-69
2022/01/16 01:07:01;;;;;;;;;74.40;57.00;;;;;5.43;48.72;99703.72;6088779;28;97187;-67
2022/01/16 01:10:05;;;;;;;;;72.50;56.00;;;;;5.42;49.03;99715.44;6077710;28;97506;-66
2022/01/16 01:13:13;;;;;;;;;70.40;53.20;;;;;5.37;48.77;99705.25;6064725;28;97818;-69
2022/01/16 01:16:16;;;;;;;;;71.20;57.00;;;;;5.37;48.85;99656.28;6083962;28;97755;-69
2022/01/16 01:19:24;;;;;;;;;72.00;58.00;;;;;5.14;48.65;99656.97;6084988;28;96918;-66
2022/01/16 01:22:27;;;;;;;;;72.80;56.80;;;;;5.22;49.06;99670.34;6102880;28;96936;-66
2022/01/16 01:25:31;;;;;;;;;69.60;54.00;;;;;5.14;49.22;99678.34;6087168;28;97519;-71
2022/01/16 01:28:35;;;;;;;;;68.80;52.60;;;;;5.15;49.16;99661.31;6087409;28;97132;-68
2022/01/16 01:31:40;;;;;;;;;69.60;53.00;;;;;5.18;49.04;99690.38;6086796;28;97284;-66
2022/01/16 01:34:43;;;;;;;;;68.25;52.75;;;;;5.21;48.70;99576.94;6085605;28;98425;-66
2022/01/16 01:37:48;;;;;;;;;69.60;52.40;;;;;5.18;48.99;99546.03;6088232;28;97012;-66
2022/01/16 01:40:51;;;;;;;;;68.00;52.00;;;;;5.13;48.61;99553.72;6087571;28;98571;-69
2022/01/16 01:54:01;;;;;;;;;65.20;50.00;;;;;5.08;49.36;99595.34;6093999;28;97433;-67
2022/01/16 01:57:05;;;;;;;;;66.40;51.40;;;;;5.03;49.02;99579.81;6092367;28;97485;-66
2022/01/16 02:00:17;;;;;;;;;68.40;53.00;;;;;5.08;49.23;99584.66;6091887;28;98354;-66
2022/01/16 02:03:26;;;;;;;;;66.60;50.80;;;;;5.10;48.88;99574.59;6091469;28;97791;-65
2022/01/16 02:06:32;;;;;;;;;66.60;51.00;;;;;5.08;48.82;99573.97;6070274;28;97524;-65
2022/01/16 02:09:38;;;;;;;;;67.00;50.00;;;;;5.12;48.98;99540.53;6091247;28;96732;-67
2022/01/16 02:12:44;;;;;;;;;64.00;50.00;;;;;5.11;48.79;99555.75;6092941;28;97509;-67
2022/01/16 02:30:17;;;;;;;;;65.20;50.60;;;;;5.08;48.50;99603.38;6092629;28;98432;-69
2022/01/16 02:36:48;;;;;;;;;62.20;48.80;;;;;5.17;48.74;99611.19;6079812;28;97192;-69
2022/01/16 02:39:55;;;;;;;;;66.00;50.00;;;;;5.16;48.24;99598.00;6091594;28;96975;-69
2022/01/16 02:42:58;;;;;;;;;64.25;50.00;;;;;5.15;47.98;99607.00;6067217;28;98397;-67
2022/01/16 02:49:32;;;;;;;;;64.80;49.80;;;;;5.06;47.68;99579.47;6084813;28;97619;-69
2022/01/16 02:52:37;;;;;;;;;61.50;48.00;;;;;5.04;47.76;99588.66;6090968;28;97195;-66
2022/01/16 02:55:44;;;;;;;;;62.00;48.25;;;;;5.01;47.65;99583.66;6076007;28;96467;-68
2022/01/16 02:58:48;;;;;;;;;62.00;49.00;;;;;4.95;47.53;99587.81;6081276;28;97228;-68
2022/01/16 03:01:52;;;;;;;;;62.00;48.00;;;;;4.92;47.62;99596.19;6087980;28;96654;-69
2022/01/16 03:04:55;;;;;;;;;60.20;48.00;;;;;4.89;47.34;99593.84;6090180;28;97695;-66
2022/01/16 03:07:58;;;;;;;;;60.00;46.75;;;;;4.84;47.57;99598.84;6092249;28;97447;-69
2022/01/16 03:11:20;;;;;;;;;66.00;49.00;;;;;4.73;47.52;99580.50;6091563;28;96260;-67
2022/01/16 03:14:23;;;;;;;;;66.50;48.50;;;;;4.83;47.77;99581.19;6078853;28;99554;-69
2022/01/16 03:17:37;;;;;;;;;58.20;45.00;;;;;4.86;47.83;99574.66;6067103;28;97207;-68
2022/01/16 03:24:16;;;;;;;;;61.00;46.00;;;;;4.75;47.68;99576.66;5995005;29;96728;-69
2022/01/16 03:27:21;;;;;;;;;62.20;48.00;;;;;4.69;47.33;99579.19;5999301;29;97242;-69
2022/01/16 03:30:24;;;;;;;;;62.00;46.00;;;;;4.60;47.39;99574.81;6085789;28;98601;-68
2022/01/16 03:33:27;;;;;;;;;58.00;46.00;;;;;4.53;47.30;99565.81;6091703;28;97158;-66
2022/01/16 03:36:31;;;;;;;;;60.20;46.00;;;;;4.41;47.37;99567.13;6090935;28;96959;-66
2022/01/16 03:39:34;;;;;;;;;61.80;45.20;;;;;4.36;47.65;99555.13;6091657;28;97484;-69
2022/01/16 03:42:39;;;;;;;;;57.00;44.25;;;;;4.39;47.74;99553.97;6082657;28;96769;-66
2022/01/16 03:45:45;;;;;;;;;58.00;46.00;;;;;4.38;47.10;99541.63;6072913;28;96474;-66
2022/01/16 03:48:48;;;;;;;;;58.00;45.00;;;;;4.24;48.16;99543.13;6091219;28;97404;-69
2022/01/16 03:51:53;;;;;;;;;60.40;46.00;;;;;4.24;48.00;99540.44;6092014;28;96460;-66
2022/01/16 03:54:57;;;;;;;;;57.40;45.60;;;;;4.16;47.80;99535.06;6090388;28;97381;-66
2022/01/16 03:58:02;;;;;;;;;58.00;45.00;;;;;4.14;47.73;99522.91;6089287;28;97129;-69
2022/01/16 04:01:05;;;;;;;;;61.00;46.60;;;;;4.11;47.93;99524.06;6074136;28;97033;-68
2022/01/16 04:04:09;;;;;;;;;58.50;45.50;;;;;4.06;47.82;99517.53;6091092;28;97062;-66
2022/01/16 04:07:18;;;;;;;;;62.00;45.60;;;;;4.03;47.09;99507.22;6089795;28;96861;-69
2022/01/16 04:10:22;;;;;;;;;60.75;45.00;;;;;4.01;47.45;99507.38;6090138;28;96240;-66
2022/01/16 04:13:27;;;;;;;;;58.20;45.60;;;;;4.00;47.33;99505.72;6072977;28;97136;-68
2022/01/16 04:16:31;;;;;;;;;57.60;45.00;;;;;3.97;47.66;99503.38;6066602;28;99494;-67
2022/01/16 04:19:35;;;;;;;;;58.25;46.00;;;;;3.98;47.27;99506.88;6065655;28;98465;-69
2022/01/16 04:22:38;;;;;;;;;60.60;45.80;;;;;3.96;47.03;99501.69;6067463;28;98011;-66
2022/01/16 04:25:42;;;;;;;;;59.60;47.00;;;;;3.95;46.69;99509.88;6086917;28;96671;-68
2022/01/16 04:28:47;;;;;;;;;58.00;46.00;;;;;3.84;46.70;99500.34;6087316;28;99436;-69
2022/01/16 04:31:50;;;;;;;;;58.00;45.00;;;;;3.89;46.70;99511.38;6088845;28;97734;-68
2022/01/16 04:34:54;;;;;;;;;57.60;44.00;;;;;3.83;46.76;99504.00;6104618;28;96940;-67
2022/01/16 04:37:57;;;;;;;;;59.00;44.20;;;;;3.76;47.32;99497.69;6100478;28;97182;-67
2022/01/16 04:44:30;;;;;;;;;55.67;44.00;;;;;3.61;47.50;99500.16;6090346;28;97175;-68
2022/01/16 04:47:33;;;;;;;;;50.40;41.00;;;;;3.54;48.08;99503.59;6075125;28;97727;-66
2022/01/16 04:50:37;;;;;;;;;53.00;40.00;;;;;3.48;48.61;99497.91;6071719;28;96844;-69
2022/01/16 04:53:41;;;;;;;;;51.20;41.20;;;;;3.47;48.40;99498.91;6090912;28;96935;-67
2022/01/16 04:56:44;;;;;;;;;53.00;42.00;;;;;3.48;47.56;99497.09;6088940;28;96459;-67
2022/01/16 04:59:49;;;;;;;;;52.60;41.60;;;;;3.36;47.41;99483.25;6090176;28;96566;-70
2022/01/16 05:02:52;;;;;;;;;53.20;41.60;;;;;3.47;46.99;99488.25;6087237;28;97438;-69
2022/01/16 05:05:56;;;;;;;;;50.60;39.00;;;;;3.46;46.50;99483.09;6077049;28;98629;-69
2022/01/16 05:09:00;;;;;;;;;51.25;40.25;;;;;3.46;46.66;99475.94;6088323;28;96543;-70
2022/01/16 05:12:10;;;;;;;;;50.80;38.80;;;;;3.42;46.69;99471.91;6095007;28;97326;-66
2022/01/16 05:18:36;;;;;;;;;48.40;37.00;;;;;3.45;47.44;99476.94;6101616;28;97367;-69
2022/01/16 05:21:42;;;;;;;;;47.00;38.50;;;;;3.49;47.53;99466.78;6087274;28;97481;-69
2022/01/16 05:24:46;;;;;;;;;50.00;40.00;;;;;3.49;47.36;99456.94;6105774;28;97245;-67
2022/01/16 05:27:50;;;;;;;;;51.67;39.33;;;;;3.49;47.06;99454.28;6093552;28;98326;-67
2022/01/16 05:30:55;;;;;;;;;51.80;40.80;;;;;3.49;47.15;99461.44;6075848;28;99874;-69
2022/01/16 05:33:58;;;;;;;;;50.40;40.60;;;;;3.46;46.93;99464.44;6092197;28;96907;-67
2022/01/16 05:37:02;;;;;;;;;51.00;39.60;;;;;3.36;46.87;99466.41;6091738;28;96791;-69
2022/01/16 05:40:07;;;;;;;;;47.00;37.60;;;;;3.22;46.93;99443.03;6080111;28;97327;-67
2022/01/16 05:43:11;;;;;;;;;47.00;39.00;;;;;3.25;46.94;99446.22;6101303;28;98420;-67
2022/01/16 05:46:15;;;;;;;;;47.40;38.60;;;;;3.23;47.03;99442.03;6091855;28;96876;-69
2022/01/16 05:49:19;;;;;;;;;46.60;36.00;;;;;3.13;46.83;99444.03;6106411;28;96883;-66
2022/01/16 05:52:22;;;;;;;;;47.00;38.00;;;;;3.11;46.58;99446.00;6091508;28;97098;-67
2022/01/16 05:55:27;;;;;;;;;50.00;40.00;;;;;3.05;46.43;99447.47;6093715;28;96542;-66
2022/01/16 05:58:30;;;;;;;;;55.00;42.00;;;;;2.98;46.15;99451.78;6092517;28;97057;-67
2022/01/16 06:01:36;;;;;;;;;52.00;41.00;;;;;2.90;46.27;99457.88;6091740;28;97908;-69
2022/01/16 06:04:40;;;;;;;;;53.60;43.00;;;;;2.86;46.40;99459.19;6092154;28;98155;-67
2022/01/16 06:07:45;;;;;;;;;52.00;40.60;;;;;2.80;46.63;99466.97;6075517;28;99821;-69
2022/01/16 06:10:48;;;;;;;;;54.25;42.00;;;;;2.80;46.67;99456.31;6068518;28;96759;-70
2022/01/16 06:13:52;;;;;;;;;54.00;40.80;;;;;2.80;46.32;99443.00;6094798;28;97453;-66
2022/01/16 06:16:57;;;;;;;;;56.00;43.40;;;;;2.83;46.25;99448.88;6077396;28;96856;-69
2022/01/16 06:20:00;;;;;;;;;53.00;41.00;;;;;2.63;46.16;99433.28;6082295;28;97305;-69
2022/01/16 06:23:03;;;;;;;;;54.80;42.80;;;;;2.78;46.63;99448.53;6092035;28;97131;-70
2022/01/16 06:26:07;;;;;;;;;54.00;42.40;;;;;2.76;45.84;99436.34;6090304;28;96634;-66
2022/01/16 06:29:10;;;;;;;;;55.40;42.60;;;;;2.75;46.19;99437.34;6092701;28;97394;-66
2022/01/16 06:32:15;;;;;;;;;57.40;43.00;;;;;2.79;46.58;99431.53;6108511;28;97174;-69
2022/01/16 06:35:18;;;;;;;;;53.60;43.60;;;;;2.81;46.03;99421.56;6090852;28;98561;-66
2022/01/16 06:38:22;;;;;;;;;54.50;43.00;;;;;2.84;45.90;99421.22;6105345;28;96464;-67
2022/01/16 06:41:25;;;;;;;;;57.60;44.00;;;;;2.83;45.59;99419.59;6115886;28;98627;-69
2022/01/16 06:44:29;;;;;;;;;52.60;42.00;;;;;2.84;45.74;99420.41;6097467;28;98033;-70
2022/01/16 06:47:33;;;;;;;;;53.75;42.00;;;;;2.87;45.97;99425.41;6069112;28;97750;-69
2022/01/16 06:50:37;;;;;;;;;56.50;43.50;;;;;2.90;45.41;99419.75;6079763;28;97375;-70
2022/01/16 06:53:40;;;;;;;;;54.40;43.00;;;;;2.96;45.52;99435.13;6098261;28;96947;-66
2022/01/16 06:56:44;;;;;;;;;55.60;42.00;;;;;3.01;45.15;99427.47;6092627;28;96520;-67
2022/01/16 06:59:48;;;;;;;;;55.60;43.00;;;;;2.96;45.75;99435.94;6092051;28;97014;-67
2022/01/16 07:02:52;;;;;;;;;50.40;39.60;;;;;2.94;46.05;99427.28;6080461;28;97219;-69
2022/01/16 07:05:57;;;;;;;;;51.40;40.40;;;;;3.03;46.43;99425.47;6074152;28;99431;-70
2022/01/16 07:09:00;;;;;;;;;53.00;42.00;;;;;3.55;45.97;99420.81;6111644;28;96458;-67
2022/01/16 07:12:05;;;;;;;;;49.60;39.00;;;;;4.41;44.39;99407.78;6131440;28;97453;-69
2022/01/16 07:15:09;;;;;;;;;49.60;40.00;;;;;5.32;42.52;99412.66;6090868;28;96974;-69
2022/01/16 07:18:14;;;;;;;;;55.00;42.00;;;;;5.81;41.23;99402.47;6099345;28;97272;-66
2022/01/16 07:21:17;;;;;;;;;55.00;40.75;;;;;6.37;40.54;99395.81;6089893;28;97598;-67
2022/01/16 07:24:20;;;;;;;;;52.00;40.50;;;;;7.65;38.06;99383.66;6079315;28;97567;-67
2022/01/16 07:27:23;;;;;;;;;51.20;41.00;;;;;9.00;36.15;99377.91;6091097;28;97051;-71
2022/01/16 07:30:27;;;;;;;;;53.00;43.00;;;;;10.33;34.57;99382.59;6096637;28;97103;-69
2022/01/16 07:33:31;;;;;;;;;58.00;45.40;;;;;11.73;32.96;99380.06;6089833;28;96918;-69
2022/01/16 07:36:35;;;;;;;;;57.00;46.00;;;;;12.94;31.04;99377.81;6090779;28;96559;-69
2022/01/16 07:39:38;;;;;;;;;58.00;46.00;;;;;13.70;29.74;99377.31;6089723;28;96815;-66
2022/01/16 07:42:41;;;;;;;;;60.40;47.00;;;;;14.39;29.00;99392.13;6087219;28;98010;-67
2022/01/16 07:45:45;;;;;;;;;58.00;45.60;;;;;15.08;27.89;99394.84;6089840;28;99084;-66
2022/01/16 07:48:50;;;;;;;;;55.00;44.60;;;;;15.86;26.61;99386.13;6078185;28;97378;-69
2022/01/16 07:51:55;;;;;;;;;58.00;45.33;;;;;16.68;25.43;99377.47;6101412;28;97525;-69
2022/01/16 07:54:58;;;;;;;;;56.00;45.00;;;;;17.23;25.22;99372.81;6058292;28;100126;-69
2022/01/16 07:58:02;;;;;;;;;58.75;45.00;;;;;17.57;24.21;99334.50;6067864;28;97376;-68
2022/01/16 08:01:06;;;;;;;;;58.00;45.50;;;;;18.07;23.91;99347.84;6082255;28;96520;-67
2022/01/16 08:04:12;;;;;;;;;62.00;47.00;;;;;18.68;22.90;99370.19;6091456;28;97243;-68
2022/01/16 08:07:15;;;;;;;;;61.20;46.40;;;;;19.03;22.86;99362.22;6091934;28;97130;-67
2022/01/16 08:10:18;;;;;;;;;62.33;48.00;;;;;18.96;22.80;99356.19;6090172;28;97494;-69
2022/01/16 08:13:21;;;;;;;;;62.00;48.00;;;;;18.65;23.18;99363.38;6089855;28;97324;-70
2022/01/16 08:16:25;;;;;;;;;61.60;48.60;;;;;18.35;23.68;99363.91;6099130;28;96597;-68
2022/01/16 08:19:30;;;;;;;;;60.40;48.00;;;;;18.22;23.87;99367.09;6087399;28;97362;-68
2022/01/16 08:22:33;;;;;;;;;63.25;48.25;;;;;18.09;24.08;99353.84;6090516;28;96788;-68
2022/01/16 08:25:37;;;;;;;;;64.60;51.00;;;;;17.97;24.25;99345.84;6084230;28;97539;-67
2022/01/16 08:28:40;;;;;;;;;63.60;50.00;;;;;18.06;24.25;99354.38;6086787;28;97523;-70
2022/01/16 08:31:43;;;;;;;;;67.00;51.00;;;;;18.47;23.57;99341.91;6083780;28;98175;-70
2022/01/16 08:34:48;;;;;;;;;67.00;51.50;;;;;19.29;22.71;99328.47;6086379;28;99712;-68
2022/01/16 08:37:52;;;;;;;;;65.80;51.80;;;;;19.68;22.19;99328.88;6087241;28;97190;-69
2022/01/16 08:40:55;;;;;;;;;70.25;53.00;;;;;19.33;22.33;99323.28;6086697;28;98019;-68
2022/01/16 08:44:02;;;;;;;;;67.00;51.00;;;;;18.76;22.71;99299.53;6069439;28;98988;-70
2022/01/16 08:47:06;;;;;;;;;65.75;51.00;;;;;18.57;22.62;99311.94;6085755;28;98439;-70
2022/01/16 08:50:12;;;;;;;;;69.00;53.00;;;;;18.64;23.13;99292.63;6086693;28;98321;-70
2022/01/16 08:53:16;;;;;;;;;70.00;52.00;;;;;18.99;22.22;99287.34;6087464;28;96750;-71
2022/01/16 08:56:20;;;;;;;;;70.00;54.20;;;;;19.57;22.16;99291.66;6078360;28;98613;-67
2022/01/16 08:59:23;;;;;;;;;69.50;52.00;;;;;20.47;21.56;99284.59;6098922;28;98043;-71
2022/01/16 09:02:26;;;;;;;;;69.75;53.25;;;;;20.84;20.72;99195.72;6098551;28;97406;-68
2022/01/16 09:05:31;;;;;;;;;66.60;52.00;;;;;22.10;19.92;99262.69;6097212;28;96958;-69
2022/01/16 09:08:37;;;;;;;;;69.25;52.75;;;;;22.89;19.24;99270.44;6097536;28;97457;-67
2022/01/16 09:11:40;;;;;;;;;67.25;51.50;;;;;23.48;18.75;99263.66;6088998;28;97457;-69
2022/01/16 09:14:43;;;;;;;;;69.00;53.00;;;;;23.96;18.10;99256.84;6094387;28;97547;-70
2022/01/16 09:17:47;;;;;;;;;66.50;50.50;;;;;24.27;17.59;99256.38;6079575;28;98204;-69
2022/01/16 09:20:52;;;;;;;;;65.00;50.00;;;;;24.39;17.51;99246.47;6092408;28;97610;-66
2022/01/16 09:23:55;;;;;;;;;68.20;50.60;;;;;23.26;17.95;99242.22;6112340;28;96963;-68
2022/01/16 09:26:58;;;;;;;;;65.60;50.00;;;;;23.69;18.09;99237.47;6079310;28;97044;-67
2022/01/16 09:30:02;;;;;;;;;64.67;50.00;;;;;23.96;17.71;99226.56;6112142;28;97499;-69
2022/01/16 09:33:05;;;;;;;;;62.50;48.00;;;;;23.91;17.47;99212.88;6096636;28;96683;-68
2022/01/16 09:36:11;;;;;;;;;61.00;46.60;;;;;23.98;17.86;99201.47;6097185;28;97471;-69
2022/01/16 09:39:15;;;;;;;;;58.00;46.00;;;;;23.46;17.96;99211.66;6097342;28;97471;-68
2022/01/16 09:42:18;;;;;;;;;62.20;48.00;;;;;23.50;17.97;99204.47;6094833;28;96770;-71
2022/01/16 09:45:22;;;;;;;;;62.00;47.00;;;;;23.21;18.11;99215.56;6094158;28;97540;-68
2022/01/16 09:48:25;;;;;;;;;60.00;48.00;;;;;23.31;18.32;99201.66;6092377;28;97167;-69
2022/01/16 09:51:31;;;;;;;;;59.40;46.00;;;;;23.03;17.85;99207.28;6096883;28;96912;-69
2022/01/16 09:54:37;;;;;;;;;61.80;48.00;;;;;22.68;18.51;99192.03;6079577;28;97473;-68
2022/01/16 09:57:41;;;;;;;;;62.00;47.80;;;;;22.38;18.92;99190.47;6095481;28;96926;-70
2022/01/16 10:00:44;;;;;;;;;58.00;46.00;;;;;22.32;18.65;99186.97;6096018;28;96867;-68
2022/01/16 10:03:48;;;;;;;;;62.00;47.25;;;;;22.27;18.46;99178.78;6094863;28;97065;-68
2022/01/16 10:06:57;;;;;;;;;60.00;46.00;;;;;21.82;18.96;99174.50;6097452;28;97184;-70
2022/01/16 10:10:09;;;;;;;;;61.00;47.00;;;;;21.66;19.31;99170.25;6092675;28;98500;-69
2022/01/16 10:13:21;;;;;;;;;62.00;48.40;;;;;21.52;19.69;99169.28;6093866;28;96856;-71
2022/01/16 10:16:31;;;;;;;;;59.75;46.75;;;;;21.41;19.52;99160.28;6092273;28;97082;-72
2022/01/16 10:19:34;;;;;;;;;62.00;48.00;;;;;20.73;20.47;99151.09;6093846;28;97762;-71
2022/01/16 10:22:40;;;;;;;;;62.25;47.25;;;;;20.08;21.26;99136.53;6092603;28;98641;-73
2022/01/16 10:25:48;;;;;;;;;60.60;47.40;;;;;20.12;21.56;99137.59;6092893;28;97508;-72
2022/01/16 10:28:53;;;;;;;;;62.00;48.00;;;;;20.16;21.21;99135.94;6092159;28;97095;-75
2022/01/16 10:32:11;;;;;;;;;62.00;48.25;;;;;20.77;20.93;99143.16;6092037;28;96970;-71
2022/01/16 10:35:17;;;;;;;;;62.00;47.00;;;;;21.22;20.36;99137.41;6084293;28;96458;-72
2022/01/16 10:38:23;;;;;;;;;62.00;47.75;;;;;21.43;20.31;99125.19;6069713;28;98195;-72
2022/01/16 10:41:27;;;;;;;;;61.00;47.00;;;;;21.50;20.33;99122.13;6077770;28;98012;-73
2022/01/16 10:44:32;;;;;;;;;61.40;48.00;;;;;21.80;19.80;99118.25;6074850;28;98462;-71
2022/01/16 10:47:38;;;;;;;;;61.00;48.20;;;;;22.34;19.26;99110.56;6093151;28;97141;-72
2022/01/16 10:50:45;;;;;;;;;62.80;49.00;;;;;23.01;19.17;99116.03;6104540;28;97157;-73
2022/01/16 10:53:49;;;;;;;;;61.00;47.00;;;;;23.44;18.58;99109.31;6090476;28;99535;-73
2022/01/16 10:56:52;;;;;;;;;62.00;48.00;;;;;23.65;18.51;99098.81;6091599;28;97312;-72
2022/01/16 11:00:07;;;;;;;;;61.75;48.00;;;;;23.62;17.98;99102.16;6090593;28;97467;-71
2022/01/16 11:03:12;;;;;;;;;56.80;46.00;;;;;23.35;18.07;99094.59;6091920;28;97444;-71
2022/01/16 11:06:16;;;;;;;;;54.40;44.00;;;;;23.42;18.18;99081.25;6090652;28;99520;-71
2022/01/16 11:09:29;;;;;;;;;56.40;44.80;;;;;23.60;17.95;99047.38;6091428;28;97031;-71
2022/01/16 11:12:36;;;;;;;;;60.00;47.00;;;;;23.83;17.78;99064.06;6105255;28;97307;-70
2022/01/16 11:15:42;;;;;;;;;61.00;48.00;;;;;24.13;17.88;99066.22;6093078;28;97459;-72
2022/01/16 11:18:49;;;;;;;;;58.40;46.00;;;;;24.23;17.38;99065.25;6088391;28;97033;-73
2022/01/16 11:21:56;;;;;;;;;60.80;46.00;;;;;23.59;17.46;99059.53;6089366;28;99636;-71
2022/01/16 11:25:12;;;;;;;;;60.00;47.00;;;;;23.12;18.19;99057.81;6092134;28;97655;-72
2022/01/16 11:28:17;;;;;;;;;60.40;46.20;;;;;23.27;18.42;99054.81;6104965;28;98378;-74
2022/01/16 11:31:20;;;;;;;;;60.00;47.60;;;;;23.58;18.05;99049.66;6090350;28;97066;-72
2022/01/16 11:34:24;;;;;;;;;52.75;42.00;;;;;23.91;17.09;99049.56;6072165;28;97428;-73
2022/01/16 11:37:29;;;;;;;;;52.00;41.80;;;;;24.27;16.43;99053.28;6068998;28;98165;-74
2022/01/16 11:40:54;;;;;;;;;48.40;39.40;;;;;24.50;15.96;99048.66;6064550;28;99602;-72
2022/01/16 11:43:57;;;;;;;;;53.00;41.00;;;;;24.05;15.67;99007.16;6069176;28;98672;-70
2022/01/16 11:47:07;;;;;;;;;48.40;38.00;;;;;24.04;15.69;99052.34;6089904;28;97287;-71
2022/01/16 11:50:12;;;;;;;;;49.80;40.80;;;;;23.95;15.73;99045.91;6089714;28;96608;-73
2022/01/16 11:53:48;;;;;;;;;49.00;40.00;;;;;24.05;15.84;99042.94;6082584;28;97501;-70
2022/01/16 11:56:58;;;;;;;;;51.40;40.60;;;;;23.97;15.60;99043.69;6067988;28;99630;-70
2022/01/16 12:00:11;;;;;;;;;47.00;39.00;;;;;23.88;15.62;99037.25;6090468;28;97849;-73
2022/01/16 12:03:33;;;;;;;;;50.00;41.00;;;;;24.03;15.72;99044.41;6086860;28;96706;-71
2022/01/16 12:06:37;;;;;;;;;54.50;43.00;;;;;24.05;16.04;99045.72;6088764;28;97717;-73
2022/01/16 12:09:54;;;;;;;;;53.00;42.00;;;;;24.20;15.86;99041.84;6087621;28;98192;-72
2022/01/16 12:12:58;;;;;;;;;50.00;39.60;;;;;24.24;15.76;99044.84;6072449;28;97163;-71
2022/01/16 12:16:40;;;;;;;;;40.00;34.00;;;;;24.29;14.98;99037.25;6072845;28;96714;-72
2022/01/16 12:19:47;;;;;;;;;42.00;33.80;;;;;24.00;15.02;99029.28;6089419;28;96823;-72
2022/01/16 12:22:52;;;;;;;;;40.00;34.00;;;;;24.08;15.36;99036.03;6072825;28;97578;-73
2022/01/16 12:26:34;;;;;;;;;39.60;32.00;;;;;23.96;14.93;98999.91;6087408;28;97456;-71
2022/01/16 12:30:09;;;;;;;;;33.00;28.00;;;;;23.54;13.89;99031.28;6072417;28;98059;-72
2022/01/16 12:33:23;;;;;;;;;30.60;28.60;;;;;22.93;13.98;99015.78;6061076;28;98100;-71
2022/01/16 12:36:33;;;;;;;;;27.40;25.00;;;;;22.40;14.11;99021.50;6041056;28;96656;-70
2022/01/16 12:39:42;;;;;;;;;27.75;25.00;;;;;22.13;14.83;99010.31;6040846;28;99743;-73
2022/01/16 12:42:46;;;;;;;;;25.40;24.40;;;;;21.97;14.98;99017.09;6043187;28;97048;-73
2022/01/16 12:45:51;;;;;;;;;24.50;23.50;;;;;21.63;15.27;99013.63;6042213;28;97030;-71
2022/01/16 12:48:57;;;;;;;;;28.00;25.00;;;;;21.32;15.56;99013.91;6042879;28;97156;-72
2022/01/16 12:52:03;;;;;;;;;31.50;28.25;;;;;20.72;16.08;99018.75;6050720;28;97430;-70
2022/01/16 12:55:07;;;;;;;;;32.80;29.40;;;;;20.07;16.35;99008.16;6053464;28;97464;-70
2022/01/16 12:58:15;;;;;;;;;33.60;30.00;;;;;19.30;16.94;98999.31;6064407;28;96863;-69
2022/01/16 13:01:20;;;;;;;;;36.00;32.00;;;;;18.64;18.05;99001.22;6088532;28;97550;-70
2022/01/16 13:04:30;;;;;;;;;40.60;33.60;;;;;17.92;18.89;98998.56;6071088;28;96657;-71
2022/01/16 13:08:00;;;;;;;;;43.00;35.00;;;;;17.17;19.93;98986.09;6048439;28;96697;-75
2022/01/16 13:11:14;;;;;;;;;47.00;38.00;;;;;16.44;20.97;98998.53;6040922;28;96724;-72
2022/01/16 13:14:22;;;;;;;;;50.00;39.50;;;;;15.72;21.88;98941.72;6040131;28;98421;-72
2022/01/16 13:17:27;;;;;;;;;47.60;38.60;;;;;15.36;22.43;98977.59;6058572;28;96766;-70
2022/01/16 13:20:31;;;;;;;;;47.20;38.20;;;;;14.88;23.09;98968.19;6063236;28;97153;-73
2022/01/16 13:23:35;;;;;;;;;51.40;42.40;;;;;14.43;23.90;98964.72;6064441;28;98257;-72
2022/01/16 13:26:38;;;;;;;;;50.60;40.00;;;;;14.05;24.64;98968.88;6064936;28;96401;-70
2022/01/16 13:29:43;;;;;;;;;53.00;41.60;;;;;13.70;25.16;98966.28;6065257;28;98169;-69
2022/01/16 13:32:48;;;;;;;;;55.60;44.00;;;;;13.27;25.91;98930.72;6082089;28;99162;-70
2022/01/16 13:35:59;;;;;;;;;57.80;43.20;;;;;13.18;26.50;98968.16;6087169;28;96947;-69
2022/01/16 13:39:03;;;;;;;;;53.80;43.40;;;;;12.80;27.31;98949.66;6086669;28;98232;-71
2022/01/16 13:42:38;;;;;;;;;53.00;43.00;;;;;12.45;28.17;98940.66;6087653;28;97173;-68
2022/01/16 13:45:43;;;;;;;;;57.00;44.00;;;;;12.22;28.16;98946.81;6090067;28;96750;-71
2022/01/16 13:48:48;;;;;;;;;53.00;42.60;;;;;11.95;28.75;98949.09;6092376;28;97026;-71
2022/01/16 13:51:56;;;;;;;;;52.60;42.00;;;;;11.75;29.00;98934.19;6088036;28;99712;-71
2022/01/16 13:55:07;;;;;;;;;55.40;43.40;;;;;11.62;29.44;98933.31;6088097;28;97297;-71
2022/01/16 13:58:14;;;;;;;;;53.00;42.40;;;;;11.35;30.07;98931.13;6091983;28;96595;-72
2022/01/16 14:01:20;;;;;;;;;55.00;43.00;;;;;11.28;30.16;98931.22;6092652;28;96517;-69
2022/01/16 14:04:26;;;;;;;;;55.75;44.00;;;;;11.18;30.69;98918.25;6107428;28;96734;-69
2022/01/16 14:07:30;;;;;;;;;52.80;42.80;;;;;11.14;30.42;98921.63;6085562;28;100226;-69
2022/01/16 14:10:38;;;;;;;;;56.00;44.25;;;;;11.04;30.78;98910.53;6079498;28;96940;-69
2022/01/16 14:13:48;;;;;;;;;56.60;45.00;;;;;10.93;31.23;98909.41;6091166;28;96571;-68
2022/01/16 14:17:15;;;;;;;;;56.25;44.50;;;;;10.80;31.08;98885.25;6068658;28;97094;-71
2022/01/16 14:20:46;;;;;;;;;54.25;42.25;;;;;10.77;31.33;98904.56;6067683;28;97453;-70
2022/01/16 14:23:49;;;;;;;;;55.00;43.20;;;;;10.73;31.44;98892.59;6075393;28;97015;-69
2022/01/16 14:26:55;;;;;;;;;57.00;43.60;;;;;10.65;31.62;98893.69;6091391;28;97138;-71
2022/01/16 14:30:00;;;;;;;;;56.00;44.00;;;;;10.57;31.79;98893.16;6092517;28;97599;-71
2022/01/16 14:33:03;;;;;;;;;54.00;42.00;;;;;10.40;31.84;98879.41;6089815;28;99791;-69
2022/01/16 14:36:08;;;;;;;;;52.00;43.00;;;;;10.41;32.01;98873.78;6089772;28;97248;-71
2022/01/16 14:39:14;;;;;;;;;53.40;43.00;;;;;10.39;32.02;98875.06;6090381;28;96735;-71
2022/01/16 14:42:41;;;;;;;;;55.00;43.60;;;;;10.40;32.17;98866.78;6017288;29;96819;-71
2022/01/16 14:45:44;;;;;;;;;57.40;45.20;;;;;10.39;32.20;98854.34;6017108;29;98474;-70
2022/01/16 14:48:47;;;;;;;;;54.25;44.00;;;;;10.34;32.11;98864.13;6016747;29;96738;-71
2022/01/16 14:51:53;;;;;;;;;53.00;42.00;;;;;10.29;32.28;98863.97;6015185;29;97464;-72
2022/01/16 14:55:17;;;;;;;;;53.40;43.00;;;;;10.27;32.07;98860.66;6033821;28;97140;-68
2022/01/16 14:58:20;;;;;;;;;57.00;45.00;;;;;10.15;32.54;98859.69;6039201;28;96581;-68
2022/01/16 15:01:24;;;;;;;;;53.75;42.50;;;;;10.19;32.50;98842.91;6035362;28;97432;-68
2022/01/16 15:04:27;;;;;;;;;58.00;45.00;;;;;10.17;32.45;98836.91;6038904;28;96829;-69
2022/01/16 15:07:32;;;;;;;;;60.00;45.00;;;;;10.15;32.29;98833.59;6037925;28;97791;-68